Casbas, Argentina
Current Conditions -  °F | °C
As of 11:00 AM on Saturday 01 Nov 2014 (Local Time) from SAEZ Reporting Station
Broken Clouds Broken Clouds  
Wind Chill: 14°   Ceiling: 4400
Heat Index: 14°   Visibility: 6mi
Dew Point:   Wind: 21mph
Humidity: 55%   Direction: 140°SE
Pressure: 30.27"   Gusts: NA
Location:  36.73°S, 62.41°W
Report Text: SAEZ 011400Z 14018KT 110V170 9999 BKN044 14/05 Q1025
Loading
Personal Weather Stations






























Interactive Weather Map
Tropical Storm Tracking
New forecast layout! Learn more

10-Day Weather Forecast

Advertisements
Track Severe Weather on mobile